sensor_id;sensor_type;location;lat;lon;timestamp;pressure;altitude;pressure_sealevel;temperature;humidity
19508;BME280;40157;42.566;27.526;2023-05-03T00:00:49;101705.31;;;12.50;73.15
19508;BME280;40157;42.566;27.526;2023-05-03T00:02:50;101691.13;;;12.43;73.29
19508;BME280;40157;42.566;27.526;2023-05-03T00:04:53;101668.06;;;12.31;73.08
19508;BME280;40157;42.566;27.526;2023-05-03T00:06:53;101655.75;;;12.30;72.95
19508;BME280;40157;42.566;27.526;2023-05-03T00:08:54;101660.94;;;12.27;72.70
19508;BME280;40157;42.566;27.526;2023-05-03T00:10:58;101677.91;;;12.40;72.42
19508;BME280;40157;42.566;27.526;2023-05-03T00:12:59;101611.09;;;11.95;72.13
19508;BME280;40157;42.566;27.526;2023-05-03T00:14:59;101687.38;;;12.33;72.25
19508;BME280;40157;42.566;27.526;2023-05-03T00:17:00;101691.88;;;12.37;72.39
19508;BME280;40157;42.566;27.526;2023-05-03T00:19:00;101692.66;;;12.33;72.76
19508;BME280;40157;42.566;27.526;2023-05-03T00:21:01;101681.84;;;12.21;72.70
19508;BME280;40157;42.566;27.526;2023-05-03T00:23:01;101692.44;;;12.24;73.11
19508;BME280;40157;42.566;27.526;2023-05-03T00:25:02;101706.50;;;12.26;73.38
19508;BME280;40157;42.566;27.526;2023-05-03T00:27:03;101703.91;;;12.28;73.42
19508;BME280;40157;42.566;27.526;2023-05-03T00:29:04;101684.22;;;12.12;73.52
19508;BME280;40157;42.566;27.526;2023-05-03T00:31:08;101695.88;;;12.21;73.42
19508;BME280;40157;42.566;27.526;2023-05-03T00:33:09;101697.53;;;12.18;73.06
19508;BME280;40157;42.566;27.526;2023-05-03T00:35:09;101691.16;;;12.08;72.96
19508;BME280;40157;42.566;27.526;2023-05-03T00:37:09;101638.56;;;11.75;72.72
19508;BME280;40157;42.566;27.526;2023-05-03T00:39:10;101641.22;;;11.75;72.75
19508;BME280;40157;42.566;27.526;2023-05-03T00:41:11;101690.94;;;12.00;72.93
19508;BME280;40157;42.566;27.526;2023-05-03T00:43:14;101661.59;;;11.85;73.14
19508;BME280;40157;42.566;27.526;2023-05-03T00:45:15;101673.00;;;11.84;73.26
19508;BME280;40157;42.566;27.526;2023-05-03T00:47:16;101689.00;;;11.93;73.57
19508;BME280;40157;42.566;27.526;2023-05-03T00:49:17;101696.97;;;11.96;73.80
19508;BME280;40157;42.566;27.526;2023-05-03T00:51:18;101675.63;;;11.84;74.11
19508;BME280;40157;42.566;27.526;2023-05-03T00:53:20;101618.69;;;11.51;74.19
19508;BME280;40157;42.566;27.526;2023-05-03T00:55:22;101649.78;;;11.68;74.30
19508;BME280;40157;42.566;27.526;2023-05-03T00:57:24;101670.28;;;11.81;74.47
19508;BME280;40157;42.566;27.526;2023-05-03T00:59:25;101657.81;;;11.74;74.56
19508;BME280;40157;42.566;27.526;2023-05-03T01:01:26;101660.47;;;11.75;74.66
19508;BME280;40157;42.566;27.526;2023-05-03T01:03:28;101670.28;;;11.81;75.11
19508;BME280;40157;42.566;27.526;2023-05-03T01:05:32;101636.38;;;11.58;75.28
19508;BME280;40157;42.566;27.526;2023-05-03T01:15:13;101666.69;;;11.79;75.99
19508;BME280;40157;42.566;27.526;2023-05-03T01:17:17;101669.28;;;11.77;76.45
19508;BME280;40157;42.566;27.526;2023-05-03T01:19:29;101667.44;;;11.73;76.37
19508;BME280;40157;42.566;27.526;2023-05-03T01:21:32;101672.81;;;11.78;76.86
19508;BME280;40157;42.566;27.526;2023-05-03T01:23:44;101674.63;;;11.80;76.91
19508;BME280;40157;42.566;27.526;2023-05-03T01:25:45;101654.16;;;11.69;77.14
19508;BME280;40157;42.566;27.526;2023-05-03T01:27:46;101670.28;;;11.81;77.29
19508;BME280;40157;42.566;27.526;2023-05-03T01:29:46;101589.94;;;11.24;77.19
19508;BME280;40157;42.566;27.526;2023-05-03T01:31:56;101670.19;;;11.78;77.49
19508;BME280;40157;42.566;27.526;2023-05-03T01:34:17;101616.22;;;11.56;77.69
19508;BME280;40157;42.566;27.526;2023-05-03T01:36:26;101632.19;;;11.65;77.86
19508;BME280;40157;42.566;27.526;2023-05-03T01:38:35;101643.75;;;11.72;78.34
19508;BME280;40157;42.566;27.526;2023-05-03T01:40:48;101661.53;;;11.82;78.76
19508;BME280;40157;42.566;27.526;2023-05-03T01:42:49;101654.44;;;11.78;79.19
19508;BME280;40157;42.566;27.526;2023-05-03T01:44:52;101668.56;;;11.83;79.73
19508;BME280;40157;42.566;27.526;2023-05-03T01:46:56;101660.69;;;11.83;79.96
19508;BME280;40157;42.566;27.526;2023-05-03T01:48:56;101663.31;;;11.83;80.42
19508;BME280;40157;42.566;27.526;2023-05-03T01:50:56;101622.50;;;11.62;80.72
19508;BME280;40157;42.566;27.526;2023-05-03T01:52:57;101639.28;;;11.68;80.87
19508;BME280;40157;42.566;27.526;2023-05-03T01:54:57;101665.03;;;11.81;81.13
19508;BME280;40157;42.566;27.526;2023-05-03T01:56:59;101641.91;;;11.68;81.32
19508;BME280;40157;42.566;27.526;2023-05-03T01:59:01;101639.31;;;11.71;81.29
19508;BME280;40157;42.566;27.526;2023-05-03T02:01:03;101619.09;;;11.66;81.40
19508;BME280;40157;42.566;27.526;2023-05-03T02:03:05;101644.91;;;11.83;81.39
19508;BME280;40157;42.566;27.526;2023-05-03T02:05:05;101656.44;;;11.88;81.31
19508;BME280;40157;42.566;27.526;2023-05-03T02:07:06;101602.38;;;11.63;81.23
19508;BME280;40157;42.566;27.526;2023-05-03T02:09:06;101647.47;;;11.80;81.46
19508;BME280;40157;42.566;27.526;2023-05-03T02:11:07;101619.88;;;11.64;81.75
19508;BME280;40157;42.566;27.526;2023-05-03T02:13:08;101655.56;;;11.88;81.81
19508;BME280;40157;42.566;27.526;2023-05-03T02:15:09;101660.09;;;11.93;81.83
19508;BME280;40157;42.566;27.526;2023-05-03T02:17:10;101653.09;;;11.94;81.73
19508;BME280;40157;42.566;27.526;2023-05-03T02:19:10;101623.69;;;11.75;81.92
19508;BME280;40157;42.566;27.526;2023-05-03T02:21:11;101630.81;;;11.79;82.26
19508;BME280;40157;42.566;27.526;2023-05-03T02:23:12;101654.66;;;11.87;82.58
19508;BME280;40157;42.566;27.526;2023-05-03T02:25:13;101644.03;;;11.82;83.07
19508;BME280;40157;42.566;27.526;2023-05-03T02:27:13;101622.66;;;11.69;83.44
19508;BME280;40157;42.566;27.526;2023-05-03T02:29:14;101588.91;;;11.49;83.99
19508;BME280;40157;42.566;27.526;2023-05-03T02:31:15;101619.97;;;11.67;84.16
19508;BME280;40157;42.566;27.526;2023-05-03T02:33:15;101627.19;;;11.74;84.47
19508;BME280;40157;42.566;27.526;2023-05-03T02:35:16;101590.56;;;11.47;84.63
19508;BME280;40157;42.566;27.526;2023-05-03T02:37:16;101621.69;;;11.65;84.93
19508;BME280;40157;42.566;27.526;2023-05-03T02:39:17;101612.72;;;11.57;85.37
19508;BME280;40157;42.566;27.526;2023-05-03T02:41:17;101626.97;;;11.66;85.26
19508;BME280;40157;42.566;27.526;2023-05-03T02:43:18;101601.06;;;11.47;85.47
19508;BME280;40157;42.566;27.526;2023-05-03T02:45:18;101605.47;;;11.48;85.55
19508;BME280;40157;42.566;27.526;2023-05-03T02:47:18;101627.81;;;11.65;85.54
19508;BME280;40157;42.566;27.526;2023-05-03T02:49:19;101552.22;;;11.20;85.31
19508;BME280;40157;42.566;27.526;2023-05-03T02:51:19;101632.44;;;11.74;85.23
19508;BME280;40157;42.566;27.526;2023-05-03T02:53:20;101645.63;;;11.76;85.11
19508;BME280;40157;42.566;27.526;2023-05-03T02:55:21;101630.56;;;11.70;84.99
19508;BME280;40157;42.566;27.526;2023-05-03T02:57:22;101625.28;;;11.69;84.95
19508;BME280;40157;42.566;27.526;2023-05-03T02:59:22;101567.78;;;11.46;84.51
19508;BME280;40157;42.566;27.526;2023-05-03T03:01:22;101645.94;;;11.88;84.27
19508;BME280;40157;42.566;27.526;2023-05-03T03:03:23;101651.06;;;11.83;84.29
19508;BME280;40157;42.566;27.526;2023-05-03T03:05:23;101635.03;;;11.73;84.44
19508;BME280;40157;42.566;27.526;2023-05-03T03:07:24;101658.06;;;11.83;84.61
19508;BME280;40157;42.566;27.526;2023-05-03T03:09:24;101658.22;;;11.89;84.56
19508;BME280;40157;42.566;27.526;2023-05-03T03:11:25;101661.69;;;11.88;84.67
19508;BME280;40157;42.566;27.526;2023-05-03T03:13:25;101635.91;;;11.73;84.77
19508;BME280;40157;42.566;27.526;2023-05-03T03:15:26;101631.44;;;11.71;84.69
19508;BME280;40157;42.566;27.526;2023-05-03T03:17:26;101661.69;;;11.88;84.76
19508;BME280;40157;42.566;27.526;2023-05-03T03:19:27;101622.66;;;11.69;84.82
19508;BME280;40157;42.566;27.526;2023-05-03T03:21:27;101616.38;;;11.63;84.82
19508;BME280;40157;42.566;27.526;2023-05-03T03:23:28;101655.50;;;11.86;85.04
19508;BME280;40157;42.566;27.526;2023-05-03T03:25:29;101663.56;;;11.92;85.05
19508;BME280;40157;42.566;27.526;2023-05-03T03:27:30;101668.03;;;11.95;85.27
19508;BME280;40157;42.566;27.526;2023-05-03T03:29:31;101655.63;;;11.91;85.43
19508;BME280;40157;42.566;27.526;2023-05-03T03:31:32;101644.97;;;11.84;85.68
19508;BME280;40157;42.566;27.526;2023-05-03T03:33:32;101662.69;;;11.92;85.95
19508;BME280;40157;42.566;27.526;2023-05-03T03:35:33;101645.69;;;11.79;86.18
19508;BME280;40157;42.566;27.526;2023-05-03T03:37:33;101674.09;;;11.92;86.42
19508;BME280;40157;42.566;27.526;2023-05-03T03:39:34;101643.13;;;11.82;86.44
19508;BME280;40157;42.566;27.526;2023-05-03T03:41:34;101647.63;;;11.86;86.63
19508;BME280;40157;42.566;27.526;2023-05-03T03:43:35;101670.63;;;11.93;86.70
19508;BME280;40157;42.566;27.526;2023-05-03T03:45:35;101680.59;;;12.07;86.78
19508;BME280;40157;42.566;27.526;2023-05-03T03:47:36;101679.75;;;12.08;86.96
19508;BME280;40157;42.566;27.526;2023-05-03T03:49:36;101684.06;;;12.06;87.08
19508;BME280;40157;42.566;27.526;2023-05-03T03:51:37;101689.41;;;12.09;87.05
19508;BME280;40157;42.566;27.526;2023-05-03T03:53:37;101653.97;;;11.93;87.19
19508;BME280;40157;42.566;27.526;2023-05-03T03:55:38;101678.94;;;12.10;87.38
19508;BME280;40157;42.566;27.526;2023-05-03T03:57:38;101677.13;;;12.08;87.39
19508;BME280;40157;42.566;27.526;2023-05-03T03:59:39;101687.78;;;12.14;87.46
19508;BME280;40157;42.566;27.526;2023-05-03T04:01:40;101688.66;;;12.13;87.47
19508;BME280;40157;42.566;27.526;2023-05-03T04:03:40;101699.28;;;12.19;87.69
19508;BME280;40157;42.566;27.526;2023-05-03T04:05:41;101692.34;;;12.21;87.54
19508;BME280;40157;42.566;27.526;2023-05-03T04:07:41;101681.97;;;12.27;87.47
19508;BME280;40157;42.566;27.526;2023-05-03T04:09:41;101679.22;;;12.21;87.70
19508;BME280;40157;42.566;27.526;2023-05-03T04:11:43;101690.94;;;12.35;87.61
19508;BME280;40157;42.566;27.526;2023-05-03T04:13:45;101690.25;;;12.43;87.44
19508;BME280;40157;42.566;27.526;2023-05-03T04:15:45;101684.28;;;12.50;87.13
19508;BME280;40157;42.566;27.526;2023-05-03T04:17:45;101680.16;;;12.61;87.87
19508;BME280;40157;42.566;27.526;2023-05-03T04:19:46;101659.97;;;12.60;87.92
19508;BME280;40157;42.566;27.526;2023-05-03T04:21:47;101653.97;;;12.66;87.57
19508;BME280;40157;42.566;27.526;2023-05-03T04:23:47;101655.09;;;12.78;87.33
19508;BME280;40157;42.566;27.526;2023-05-03T04:25:47;101641.94;;;12.78;86.94
19508;BME280;40157;42.566;27.526;2023-05-03T04:27:48;101683.09;;;13.14;86.16
19508;BME280;40157;42.566;27.526;2023-05-03T04:29:48;101689.66;;;13.33;86.07
19508;BME280;40157;42.566;27.526;2023-05-03T04:31:49;101681.75;;;13.33;85.68
19508;BME280;40157;42.566;27.526;2023-05-03T04:33:50;101699.00;;;13.62;85.39
19508;BME280;40157;42.566;27.526;2023-05-03T04:35:51;101661.94;;;13.53;85.13
19508;BME280;40157;42.566;27.526;2023-05-03T04:37:51;101681.78;;;13.79;85.02
19508;BME280;40157;42.566;27.526;2023-05-03T04:39:52;101712.06;;;14.03;85.03
19508;BME280;40157;42.566;27.526;2023-05-03T04:41:52;101710.56;;;14.17;85.43
19508;BME280;40157;42.566;27.526;2023-05-03T04:43:53;101716.09;;;14.33;85.77
19508;BME280;40157;42.566;27.526;2023-05-03T04:45:53;101688.88;;;14.37;85.39
19508;BME280;40157;42.566;27.526;2023-05-03T04:47:53;101695.31;;;14.53;85.44
19508;BME280;40157;42.566;27.526;2023-05-03T04:49:54;101707.09;;;14.75;85.43
19508;BME280;40157;42.566;27.526;2023-05-03T04:51:54;101699.44;;;14.93;85.73
19508;BME280;40157;42.566;27.526;2023-05-03T04:53:55;101659.63;;;14.76;85.55
19508;BME280;40157;42.566;27.526;2023-05-03T04:55:55;101726.34;;;15.30;85.39
19508;BME280;40157;42.566;27.526;2023-05-03T04:57:56;101715.00;;;15.38;84.65
19508;BME280;40157;42.566;27.526;2023-05-03T04:59:56;101709.81;;;15.47;84.31
19508;BME280;40157;42.566;27.526;2023-05-03T05:01:57;101654.06;;;15.25;83.79
19508;BME280;40157;42.566;27.526;2023-05-03T05:03:57;101726.94;;;15.78;83.11
19508;BME280;40157;42.566;27.526;2023-05-03T05:05:58;101742.97;;;15.92;83.05
19508;BME280;40157;42.566;27.526;2023-05-03T05:07:58;101735.13;;;16.01;82.44
19508;BME280;40157;42.566;27.526;2023-05-03T05:09:59;101723.69;;;16.02;81.98
19508;BME280;40157;42.566;27.526;2023-05-03T05:11:59;101733.47;;;16.13;81.72
19508;BME280;40157;42.566;27.526;2023-05-03T05:14:01;101732.63;;;16.17;81.06
19508;BME280;40157;42.566;27.526;2023-05-03T05:16:01;101753.91;;;16.27;80.43
19508;BME280;40157;42.566;27.526;2023-05-03T05:18:01;101710.50;;;16.08;80.03
19508;BME280;40157;42.566;27.526;2023-05-03T05:20:02;101782.31;;;16.49;79.73
19508;BME280;40157;42.566;27.526;2023-05-03T05:22:06;101794.75;;;16.56;78.94
19508;BME280;40157;42.566;27.526;2023-05-03T05:24:07;101748.78;;;16.48;78.63
19508;BME280;40157;42.566;27.526;2023-05-03T05:26:07;101752.38;;;16.56;78.11
19508;BME280;40157;42.566;27.526;2023-05-03T05:28:08;101742.69;;;16.58;77.89
19508;BME280;40157;42.566;27.526;2023-05-03T05:30:10;101761.34;;;16.76;77.32
19508;BME280;40157;42.566;27.526;2023-05-03T05:32:11;101763.16;;;16.83;76.93
19508;BME280;40157;42.566;27.526;2023-05-03T05:34:12;101755.25;;;16.85;76.51
19508;BME280;40157;42.566;27.526;2023-05-03T05:36:13;101757.97;;;16.93;76.45
19508;BME280;40157;42.566;27.526;2023-05-03T05:38:16;101733.13;;;16.78;76.30
19508;BME280;40157;42.566;27.526;2023-05-03T05:40:16;101742.97;;;16.95;75.83
19508;BME280;40157;42.566;27.526;2023-05-03T05:42:17;101727.09;;;16.98;75.25
19508;BME280;40157;42.566;27.526;2023-05-03T05:44:17;101674.78;;;16.66;74.69
19508;BME280;40157;42.566;27.526;2023-05-03T05:46:18;101700.56;;;16.87;74.44
19508;BME280;40157;42.566;27.526;2023-05-03T05:48:20;101708.53;;;16.93;74.18
19508;BME280;40157;42.566;27.526;2023-05-03T05:50:21;101726.25;;;17.05;74.16
19508;BME280;40157;42.566;27.526;2023-05-03T05:52:21;101696.94;;;16.80;73.45
19508;BME280;40157;42.566;27.526;2023-05-03T05:54:22;101698.66;;;16.77;73.20
19508;BME280;40157;42.566;27.526;2023-05-03T05:56:22;101759.88;;;17.12;73.36
19508;BME280;40157;42.566;27.526;2023-05-03T05:58:23;101749.28;;;17.15;73.53
19508;BME280;40157;42.566;27.526;2023-05-03T06:00:23;101749.31;;;17.17;72.99
19508;BME280;40157;42.566;27.526;2023-05-03T06:02:24;101766.94;;;17.15;72.90
19508;BME280;40157;42.566;27.526;2023-05-03T06:04:26;101755.38;;;17.05;72.49
19508;BME280;40157;42.566;27.526;2023-05-03T06:06:26;101755.38;;;17.00;72.48
19508;BME280;40157;42.566;27.526;2023-05-03T06:08:27;101788.13;;;17.10;72.25
19508;BME280;40157;42.566;27.526;2023-05-03T06:10:27;101780.19;;;17.10;72.35
19508;BME280;40157;42.566;27.526;2023-05-03T06:12:28;101777.50;;;17.12;72.67
19508;BME280;40157;42.566;27.526;2023-05-03T06:14:29;101739.38;;;16.85;72.32
19508;BME280;40157;42.566;27.526;2023-05-03T06:16:29;101782.78;;;17.04;72.39
19508;BME280;40157;42.566;27.526;2023-05-03T06:18:32;101770.34;;;16.97;72.65
19508;BME280;40157;42.566;27.526;2023-05-03T06:20:32;101741.97;;;16.83;72.63
19508;BME280;40157;42.566;27.526;2023-05-03T06:22:33;101772.13;;;16.98;72.15
19508;BME280;40157;42.566;27.526;2023-05-03T06:24:33;101786.25;;;16.97;71.50
19508;BME280;40157;42.566;27.526;2023-05-03T06:26:34;101787.16;;;16.99;71.91
19508;BME280;40157;42.566;27.526;2023-05-03T06:28:34;101783.56;;;16.89;72.40
19508;BME280;40157;42.566;27.526;2023-05-03T06:30:35;101725.00;;;16.55;72.45
19508;BME280;40157;42.566;27.526;2023-05-03T06:32:37;101775.50;;;16.78;72.62
19508;BME280;40157;42.566;27.526;2023-05-03T06:34:39;101797.59;;;16.79;71.66
19508;BME280;40157;42.566;27.526;2023-05-03T06:36:40;101820.50;;;16.74;71.20
19508;BME280;40157;42.566;27.526;2023-05-03T06:38:40;101831.03;;;16.66;71.04
19508;BME280;40157;42.566;27.526;2023-05-03T06:40:41;101801.75;;;16.51;71.20
19508;BME280;40157;42.566;27.526;2023-05-03T06:42:41;101802.53;;;16.42;71.73
19508;BME280;40157;42.566;27.526;2023-05-03T06:44:42;101818.50;;;16.50;72.39
19508;BME280;40157;42.566;27.526;2023-05-03T06:46:42;101832.63;;;16.47;71.86
19508;BME280;40157;42.566;27.526;2023-05-03T06:48:42;101763.28;;;15.96;72.45
19508;BME280;40157;42.566;27.526;2023-05-03T06:50:43;101785.38;;;16.01;72.68
19508;BME280;40157;42.566;27.526;2023-05-03T06:52:43;101847.47;;;16.34;73.14
19508;BME280;40157;42.566;27.526;2023-05-03T06:54:44;101841.19;;;16.23;73.54
19508;BME280;40157;42.566;27.526;2023-05-03T06:56:44;101827.91;;;16.20;73.45
19508;BME280;40157;42.566;27.526;2023-05-03T06:58:45;101808.41;;;16.12;73.65
19508;BME280;40157;42.566;27.526;2023-05-03T07:00:46;101781.94;;;16.08;73.86
19508;BME280;40157;42.566;27.526;2023-05-03T07:02:46;101835.16;;;16.36;74.28
19508;BME280;40157;42.566;27.526;2023-05-03T07:04:47;101813.00;;;16.28;73.51
19508;BME280;40157;42.566;27.526;2023-05-03T07:06:47;101849.34;;;16.44;73.25
19508;BME280;40157;42.566;27.526;2023-05-03T07:08:51;101854.59;;;16.41;72.86
19508;BME280;40157;42.566;27.526;2023-05-03T07:10:51;101856.25;;;16.30;72.47
19508;BME280;40157;42.566;27.526;2023-05-03T07:12:52;101879.25;;;16.34;71.96
19508;BME280;40157;42.566;27.526;2023-05-03T07:14:54;101874.72;;;16.22;71.56
19508;BME280;40157;42.566;27.526;2023-05-03T07:16:54;101869.41;;;16.21;72.02
19508;BME280;40157;42.566;27.526;2023-05-03T07:18:55;101854.28;;;16.11;72.27
19508;BME280;40157;42.566;27.526;2023-05-03T07:20:55;101824.00;;;15.84;72.34
19508;BME280;40157;42.566;27.526;2023-05-03T07:22:56;101823.94;;;15.79;72.88
19508;BME280;40157;42.566;27.526;2023-05-03T07:24:57;101871.88;;;16.08;72.87
19508;BME280;40157;42.566;27.526;2023-05-03T07:26:58;101853.19;;;15.95;72.05
19508;BME280;40157;42.566;27.526;2023-05-03T07:28:59;101898.47;;;16.18;72.85
19508;BME280;40157;42.566;27.526;2023-05-03T07:30:59;101900.25;;;16.20;72.55
19508;BME280;40157;42.566;27.526;2023-05-03T07:33:01;101891.28;;;16.07;72.38
19508;BME280;40157;42.566;27.526;2023-05-03T07:35:01;101819.41;;;15.70;72.10
19508;BME280;40157;42.566;27.526;2023-05-03T07:37:02;101890.47;;;16.15;71.86
19508;BME280;40157;42.566;27.526;2023-05-03T07:39:03;101877.22;;;16.12;72.25
19508;BME280;40157;42.566;27.526;2023-05-03T07:41:04;101836.38;;;15.88;72.91
19508;BME280;40157;42.566;27.526;2023-05-03T07:43:05;101902.94;;;16.25;72.82
19508;BME280;40157;42.566;27.526;2023-05-03T07:45:06;101889.66;;;16.22;72.32
19508;BME280;40157;42.566;27.526;2023-05-03T07:47:06;101867.63;;;16.21;72.34
19508;BME280;40157;42.566;27.526;2023-05-03T07:49:07;101879.16;;;16.28;72.46
19508;BME280;40157;42.566;27.526;2023-05-03T07:51:07;101904.03;;;16.42;71.72
19508;BME280;40157;42.566;27.526;2023-05-03T07:53:08;101832.88;;;15.89;71.22
19508;BME280;40157;42.566;27.526;2023-05-03T07:55:08;101902.16;;;16.31;70.95
19508;BME280;40157;42.566;27.526;2023-05-03T07:57:09;101904.84;;;16.34;70.03
19508;BME280;40157;42.566;27.526;2023-05-03T07:59:09;101894.09;;;16.23;69.05
19508;BME280;40157;42.566;27.526;2023-05-03T08:01:10;101892.50;;;16.36;68.70
19508;BME280;40157;42.566;27.526;2023-05-03T08:03:10;101895.22;;;16.43;68.99
19508;BME280;40157;42.566;27.526;2023-05-03T08:05:11;101881.03;;;16.38;69.34
19508;BME280;40157;42.566;27.526;2023-05-03T08:07:13;101865.16;;;16.38;69.51
19508;BME280;40157;42.566;27.526;2023-05-03T08:09:14;101873.22;;;16.49;69.18
19508;BME280;40157;42.566;27.526;2023-05-03T08:11:14;101902.59;;;16.74;68.11
19508;BME280;40157;42.566;27.526;2023-05-03T08:13:15;101912.28;;;16.69;67.13
19508;BME280;40157;42.566;27.526;2023-05-03T08:15:16;101894.66;;;16.72;66.06
19508;BME280;40157;42.566;27.526;2023-05-03T08:17:16;101905.31;;;16.81;66.74
19508;BME280;40157;42.566;27.526;2023-05-03T08:19:17;101912.47;;;16.86;66.50
19508;BME280;40157;42.566;27.526;2023-05-03T08:21:17;101884.97;;;16.77;66.88
19508;BME280;40157;42.566;27.526;2023-05-03T08:23:18;101917.00;;;16.99;66.05
19508;BME280;40157;42.566;27.526;2023-05-03T08:25:19;101878.91;;;16.88;66.14
19508;BME280;40157;42.566;27.526;2023-05-03T08:27:19;101834.56;;;16.70;65.76
19508;BME280;40157;42.566;27.526;2023-05-03T08:29:20;101862.25;;;17.01;66.52
19508;BME280;40157;42.566;27.526;2023-05-03T08:31:20;101901.22;;;17.14;65.53
19508;BME280;40157;42.566;27.526;2023-05-03T08:33:21;101819.59;;;16.73;64.21
19508;BME280;40157;42.566;27.526;2023-05-03T08:35:21;101888.94;;;17.26;64.39
19508;BME280;40157;42.566;27.526;2023-05-03T08:37:22;101881.84;;;17.25;62.02
19508;BME280;40157;42.566;27.526;2023-05-03T08:39:23;101905.75;;;17.29;61.36
19508;BME280;40157;42.566;27.526;2023-05-03T08:41:29;101896.03;;;17.30;62.29
19508;BME280;40157;42.566;27.526;2023-05-03T08:43:32;101894.28;;;17.29;61.77
19508;BME280;40157;42.566;27.526;2023-05-03T08:45:36;101880.13;;;17.33;61.30
19508;BME280;40157;42.566;27.526;2023-05-03T08:47:37;101876.66;;;17.43;61.11
19508;BME280;40157;42.566;27.526;2023-05-03T08:49:40;101865.19;;;17.41;60.01
19508;BME280;40157;42.566;27.526;2023-05-03T08:51:42;101852.78;;;17.38;59.28
19508;BME280;40157;42.566;27.526;2023-05-03T08:53:46;101885.59;;;17.57;59.40
19508;BME280;40157;42.566;27.526;2023-05-03T08:55:47;101871.44;;;17.52;59.16
19508;BME280;40157;42.566;27.526;2023-05-03T08:57:47;101852.84;;;17.48;60.86
19508;BME280;40157;42.566;27.526;2023-05-03T08:59:51;101860.00;;;17.66;62.16
19508;BME280;40157;42.566;27.526;2023-05-03T09:01:57;101854.66;;;17.60;62.59
19508;BME280;40157;42.566;27.526;2023-05-03T09:03:59;101846.72;;;17.61;62.30
19508;BME280;40157;42.566;27.526;2023-05-03T09:05:59;101851.16;;;17.64;61.74
19508;BME280;40157;42.566;27.526;2023-05-03T09:10:21;101838.81;;;17.66;62.58
19508;BME280;40157;42.566;27.526;2023-05-03T09:12:39;101850.28;;;17.68;62.80
19508;BME280;40157;42.566;27.526;2023-05-03T09:14:44;101821.97;;;17.57;63.23
19508;BME280;40157;42.566;27.526;2023-05-03T09:16:45;101836.19;;;17.72;63.81
19508;BME280;40157;42.566;27.526;2023-05-03T09:18:55;101837.94;;;17.76;63.52
19508;BME280;40157;42.566;27.526;2023-05-03T09:20:56;101825.56;;;17.69;63.12
19508;BME280;40157;42.566;27.526;2023-05-03T09:22:57;101822.91;;;17.70;62.76
19508;BME280;40157;42.566;27.526;2023-05-03T09:24:59;101843.25;;;17.76;63.69
19508;BME280;40157;42.566;27.526;2023-05-03T09:27:01;101839.72;;;17.72;62.17
19508;BME280;40157;42.566;27.526;2023-05-03T09:29:30;101851.25;;;17.79;61.69
19508;BME280;40157;42.566;27.526;2023-05-03T09:31:32;101854.78;;;17.80;62.23
19508;BME280;40157;42.566;27.526;2023-05-03T09:33:33;101834.41;;;17.74;62.87
19508;BME280;40157;42.566;27.526;2023-05-03T09:35:33;101832.66;;;17.76;62.88
19508;BME280;40157;42.566;27.526;2023-05-03T09:37:37;101791.91;;;17.55;62.36
19508;BME280;40157;42.566;27.526;2023-05-03T09:39:37;101801.66;;;17.64;63.70
19508;BME280;40157;42.566;27.526;2023-05-03T09:41:38;101793.69;;;17.63;62.74
19508;BME280;40157;42.566;27.526;2023-05-03T09:43:49;101803.41;;;17.67;62.14
19508;BME280;40157;42.566;27.526;2023-05-03T09:45:50;101741.41;;;17.31;61.47
19508;BME280;40157;42.566;27.526;2023-05-03T09:47:52;101791.88;;;17.52;61.19
19508;BME280;40157;42.566;27.526;2023-05-03T09:49:54;101772.38;;;17.41;62.10
19508;BME280;40157;42.566;27.526;2023-05-03T09:51:56;101752.84;;;17.27;62.30
19508;BME280;40157;42.566;27.526;2023-05-03T09:53:58;101745.75;;;17.19;63.39
19508;BME280;40157;42.566;27.526;2023-05-03T09:56:02;101750.22;;;17.30;63.96
19508;BME280;40157;42.566;27.526;2023-05-03T09:58:04;101718.34;;;17.11;63.58
19508;BME280;40157;42.566;27.526;2023-05-03T10:00:08;101706.81;;;17.06;64.12
19508;BME280;40157;42.566;27.526;2023-05-03T10:02:10;101720.94;;;17.02;64.49
19508;BME280;40157;42.566;27.526;2023-05-03T10:04:10;101732.47;;;17.12;64.64
19508;BME280;40157;42.566;27.526;2023-05-03T10:06:38;101761.69;;;17.23;64.48
19508;BME280;40157;42.566;27.526;2023-05-03T10:08:45;101748.47;;;17.26;65.11
19508;BME280;40157;42.566;27.526;2023-05-03T10:10:49;101757.34;;;17.35;65.45
19508;BME280;40157;42.566;27.526;2023-05-03T10:12:53;101752.03;;;17.35;64.30
19508;BME280;40157;42.566;27.526;2023-05-03T10:14:55;101752.94;;;17.45;63.30
19508;BME280;40157;42.566;27.526;2023-05-03T10:17:00;101767.13;;;17.56;63.39
19508;BME280;40157;42.566;27.526;2023-05-03T10:19:51;101768.94;;;17.70;62.56
19508;BME280;40157;42.566;27.526;2023-05-03T10:22:03;101761.00;;;17.70;61.67
19508;BME280;40157;42.566;27.526;2023-05-03T10:24:14;101745.06;;;17.59;60.45
19508;BME280;40157;42.566;27.526;2023-05-03T10:26:15;101740.66;;;17.63;59.19
19508;BME280;40157;42.566;27.526;2023-05-03T10:28:16;101743.31;;;17.73;58.86
19508;BME280;40157;42.566;27.526;2023-05-03T10:32:36;101739.91;;;18.04;57.89
19508;BME280;40157;42.566;27.526;2023-05-03T10:34:42;101731.06;;;18.06;56.75
19508;BME280;40157;42.566;27.526;2023-05-03T10:36:42;101741.66;;;18.22;57.46
19508;BME280;40157;42.566;27.526;2023-05-03T10:38:43;101756.75;;;18.26;56.60
19508;BME280;40157;42.566;27.526;2023-05-03T10:40:43;101751.44;;;18.34;55.38